createdAt,value
2022-08-05T00:00:00.306Z,29.20
2022-08-05T00:02:29.914Z,29.20
2022-08-05T00:04:57.874Z,29.20
2022-08-05T00:07:59.147Z,29.20
2022-08-05T00:10:14.335Z,29.20
2022-08-05T00:12:56.161Z,29.10
2022-08-05T00:15:58.181Z,29.10
2022-08-05T00:18:21.526Z,29.10
2022-08-05T00:20:49.827Z,28.90
2022-08-05T00:23:17.748Z,28.80
2022-08-05T00:28:34.203Z,28.60
2022-08-05T00:31:02.816Z,28.50
2022-08-05T00:34:53.354Z,28.40
2022-08-05T00:37:10.602Z,28.30
2022-08-05T00:39:13.371Z,28.30
2022-08-05T00:41:55.184Z,28.20
2022-08-05T00:44:30.861Z,28.10
2022-08-05T00:47:02.071Z,28.10
2022-08-05T00:49:51.189Z,28.10
2022-08-05T00:52:28.578Z,28.10
2022-08-05T00:54:56.866Z,28.00
2022-08-05T00:57:38.265Z,28.00
2022-08-05T01:00:15.336Z,28.00
2022-08-05T01:02:44.910Z,27.90
2022-08-05T01:05:14.220Z,27.90
2022-08-05T01:08:42.110Z,27.90
2022-08-05T01:10:36.423Z,27.90
2022-08-05T01:13:13.265Z,27.90
2022-08-05T01:15:54.105Z,27.90
2022-08-05T01:18:27.481Z,27.90
2022-08-05T01:21:13.296Z,27.80
2022-08-05T01:24:02.714Z,27.80
2022-08-05T01:26:54.490Z,27.70
2022-08-05T01:29:30.779Z,27.70
2022-08-05T01:32:03.219Z,27.70
2022-08-05T01:34:35.999Z,27.70
2022-08-05T01:37:09.015Z,27.60
2022-08-05T01:39:47.549Z,27.60
2022-08-05T01:42:20.487Z,27.60
2022-08-05T01:44:54.185Z,27.30
2022-08-05T01:47:38.888Z,27.30
2022-08-05T01:50:15.779Z,27.30
2022-08-05T01:52:49.697Z,27.20
2022-08-05T01:55:21.436Z,27.20
2022-08-05T01:58:11.650Z,27.20
2022-08-05T02:00:44.217Z,27.20
2022-08-05T02:03:31.268Z,27.20
2022-08-05T02:06:03.693Z,27.20
2022-08-05T02:08:58.307Z,27.20
2022-08-05T02:11:33.565Z,27.20
2022-08-05T02:14:06.349Z,27.20
2022-08-05T02:16:40.847Z,27.10
2022-08-05T02:19:16.897Z,26.80
2022-08-05T02:21:52.214Z,26.80
2022-08-05T02:24:23.556Z,26.70
2022-08-05T02:26:55.450Z,26.70
2022-08-05T02:29:58.170Z,26.50
2022-08-05T02:32:23.737Z,26.40
2022-08-05T02:34:59.418Z,26.30
2022-08-05T02:37:34.721Z,26.30
2022-08-05T02:40:03.931Z,26.30
2022-08-05T02:42:36.126Z,26.40
2022-08-05T02:45:05.985Z,26.50
2022-08-05T02:47:58.719Z,26.50
2022-08-05T02:50:26.708Z,26.40
2022-08-05T02:52:55.270Z,26.40
2022-08-05T02:55:53.832Z,26.30
2022-08-05T02:58:15.549Z,26.40
2022-08-05T03:00:46.102Z,26.30
2022-08-05T03:03:17.541Z,26.40
2022-08-05T03:06:53.575Z,26.20
2022-08-05T03:08:35.883Z,26.00
2022-08-05T03:11:56.548Z,26.00
2022-08-05T03:14:02.871Z,25.70
2022-08-05T03:16:31.565Z,25.50
2022-08-05T03:19:01.226Z,25.40
2022-08-05T03:21:41.387Z,25.50
2022-08-05T03:24:10.965Z,25.60
2022-08-05T03:26:41.367Z,25.60
2022-08-05T03:29:13.589Z,25.70
2022-08-05T03:31:57.173Z,25.70
2022-08-05T03:34:30.368Z,25.70
2022-08-05T03:36:58.276Z,25.70
2022-08-05T03:39:27.654Z,25.70
2022-08-05T03:41:56.259Z,25.70
2022-08-05T03:44:24.609Z,25.60
2022-08-05T03:46:52.688Z,25.70
2022-08-05T03:52:37.588Z,25.60
2022-08-05T03:55:49.743Z,25.50
2022-08-05T03:57:44.569Z,25.40
2022-08-05T04:00:15.972Z,25.40
2022-08-05T04:02:58.774Z,25.20
2022-08-05T04:05:33.576Z,24.80
2022-08-05T04:08:05.824Z,24.20
2022-08-05T04:10:44.610Z,24.10
2022-08-05T04:13:13.070Z,24.00
2022-08-05T04:15:52.814Z,23.90
2022-08-05T04:18:29.078Z,23.70
2022-08-05T04:20:59.081Z,23.60
2022-08-05T04:24:05.344Z,23.60
2022-08-05T04:26:18.533Z,23.70
2022-08-05T04:28:50.806Z,23.70
2022-08-05T04:31:20.306Z,23.70
2022-08-05T04:34:18.874Z,23.80
2022-08-05T04:36:45.674Z,24.00
2022-08-05T04:39:15.538Z,24.10
2022-08-05T04:41:43.439Z,24.20
2022-08-05T04:44:13.479Z,24.30
2022-08-05T04:46:42.943Z,24.40
2022-08-05T04:49:15.073Z,24.30
2022-08-05T04:51:44.004Z,24.40
2022-08-05T04:54:12.344Z,24.50
2022-08-05T04:56:41.722Z,24.60
2022-08-05T04:59:21.854Z,24.60
2022-08-05T05:02:07.254Z,24.60
2022-08-05T05:04:48.032Z,24.70
2022-08-05T05:07:18.231Z,24.80
2022-08-05T05:09:52.024Z,24.80
2022-08-05T05:12:23.071Z,24.60
2022-08-05T05:14:55.126Z,24.50
2022-08-05T05:17:24.641Z,24.30
2022-08-05T05:20:12.397Z,24.30
2022-08-05T05:22:44.142Z,24.30
2022-08-05T05:25:16.935Z,24.30
2022-08-05T05:27:48.800Z,24.30
2022-08-05T05:30:30.627Z,24.30
2022-08-05T05:33:13.948Z,24.40
2022-08-05T05:35:44.928Z,24.40
2022-08-05T05:38:13.440Z,24.50
2022-08-05T05:40:50.110Z,24.60
2022-08-05T05:43:56.402Z,24.50
2022-08-05T05:46:17.540Z,24.50
2022-08-05T05:48:48.846Z,24.60
2022-08-05T05:51:24.414Z,24.60
2022-08-05T05:53:58.652Z,24.50
2022-08-05T05:56:33.210Z,24.50
2022-08-05T05:59:06.437Z,24.50
2022-08-05T06:01:37.654Z,23.00
2022-08-05T06:04:07.462Z,24.50
2022-08-05T06:06:36.006Z,24.50
2022-08-05T06:09:04.752Z,24.40
2022-08-05T06:11:32.942Z,24.40
2022-08-05T06:14:00.891Z,24.40
2022-08-05T06:16:36.709Z,24.40
2022-08-05T06:19:07.565Z,24.50
2022-08-05T06:21:38.814Z,24.50
2022-08-05T06:24:12.489Z,24.40
2022-08-05T06:29:26.440Z,24.50
2022-08-05T06:32:21.151Z,24.80
2022-08-05T06:34:56.896Z,24.90
2022-08-05T06:37:58.311Z,25.00
2022-08-05T06:40:18.319Z,25.00
2022-08-05T06:42:51.975Z,25.20
2022-08-05T06:46:02.915Z,25.30
2022-08-05T06:48:36.778Z,25.30
2022-08-05T06:51:00.188Z,25.40
2022-08-05T06:53:29.251Z,25.40
2022-08-05T06:55:58.125Z,25.30
2022-08-05T06:58:35.437Z,25.30
2022-08-05T07:01:06.586Z,25.30
2022-08-05T07:03:36.300Z,25.30
2022-08-05T07:06:14.366Z,25.30
2022-08-05T07:08:47.660Z,25.30
2022-08-05T07:14:08.074Z,25.40
2022-08-05T07:17:59.722Z,25.40
2022-08-05T07:22:30.076Z,25.40
2022-08-05T07:25:22.154Z,25.50
2022-08-05T07:27:57.949Z,25.70
2022-08-05T07:30:32.069Z,25.80
2022-08-05T07:33:01.431Z,25.80
2022-08-05T07:36:01.814Z,25.80
2022-08-05T07:38:32.896Z,25.80
2022-08-05T07:42:09.594Z,25.90
2022-08-05T07:43:52.714Z,25.90
2022-08-05T07:46:26.165Z,25.90
2022-08-05T07:49:01.908Z,25.90
2022-08-05T07:51:41.008Z,26.00
2022-08-05T07:54:21.989Z,26.00
2022-08-05T07:57:13.758Z,26.10
2022-08-05T07:59:40.890Z,26.00
2022-08-05T08:02:10.710Z,25.90
2022-08-05T08:04:44.863Z,25.70
2022-08-05T08:07:15.084Z,25.60
2022-08-05T08:09:43.612Z,25.60
2022-08-05T08:12:33.324Z,25.60
2022-08-05T08:15:02.244Z,25.40
2022-08-05T08:20:21.548Z,25.00
2022-08-05T08:22:53.120Z,24.80
2022-08-05T08:25:26.839Z,24.80
2022-08-05T08:28:11.414Z,24.90
2022-08-05T08:30:49.519Z,25.10
2022-08-05T08:33:19.108Z,25.10
2022-08-05T08:35:53.846Z,25.10
2022-08-05T08:38:37.877Z,25.20
2022-08-05T08:41:08.412Z,25.20
2022-08-05T08:45:19.669Z,25.10
2022-08-05T08:46:28.737Z,25.00
2022-08-05T08:49:06.295Z,25.00
2022-08-05T08:52:03.268Z,25.10
2022-08-05T08:54:37.352Z,25.20
2022-08-05T08:57:11.344Z,25.30
2022-08-05T08:59:41.965Z,25.30
2022-08-05T09:02:16.766Z,25.30
2022-08-05T09:04:58.188Z,25.50
2022-08-05T09:07:40.147Z,25.60
2022-08-05T09:10:27.013Z,25.70
2022-08-05T09:12:56.769Z,25.60
2022-08-05T09:15:27.834Z,25.50
2022-08-05T09:17:58.535Z,25.40
2022-08-05T09:20:37.359Z,25.40
2022-08-05T09:23:18.544Z,25.60
2022-08-05T09:26:02.122Z,25.70
2022-08-05T09:28:34.276Z,25.70
2022-08-05T09:31:22.151Z,25.70
2022-08-05T09:33:53.808Z,25.70
2022-08-05T09:36:27.769Z,25.70
2022-08-05T09:39:03.285Z,25.60
2022-08-05T09:41:59.725Z,25.60
2022-08-05T09:44:39.191Z,25.90
2022-08-05T09:47:12.790Z,26.00
2022-08-05T09:50:01.315Z,26.00
2022-08-05T09:52:32.479Z,25.80
2022-08-05T09:55:55.190Z,25.80
2022-08-05T09:57:54.622Z,25.70
2022-08-05T10:00:27.657Z,25.80
2022-08-05T10:02:58.561Z,25.90
2022-08-05T10:05:28.871Z,25.80
2022-08-05T10:08:10.618Z,25.80
2022-08-05T10:10:54.560Z,25.80
2022-08-05T10:13:46.283Z,25.90
2022-08-05T10:16:34.159Z,25.90
2022-08-05T10:19:09.502Z,26.00
2022-08-05T10:21:40.265Z,25.90
2022-08-05T10:24:12.929Z,25.80
2022-08-05T10:29:24.038Z,25.90
2022-08-05T10:32:54.908Z,26.10
2022-08-05T10:35:00.960Z,26.00
2022-08-05T10:37:37.530Z,26.30
2022-08-05T10:40:28.062Z,26.30
2022-08-05T10:43:02.592Z,26.50
2022-08-05T10:45:40.071Z,26.60
2022-08-05T10:48:52.400Z,26.50
2022-08-05T10:51:28.466Z,26.50
2022-08-05T10:54:01.613Z,26.50
2022-08-05T10:56:52.890Z,26.60
2022-08-05T11:00:02.937Z,26.60
2022-08-05T11:02:34.640Z,26.70
2022-08-05T11:05:06.272Z,26.90
2022-08-05T11:08:02.893Z,27.00
2022-08-05T11:10:27.377Z,26.90
2022-08-05T11:12:56.439Z,26.90
2022-08-05T11:16:00.174Z,26.90
2022-08-05T11:18:30.096Z,26.90
2022-08-05T11:21:02.706Z,26.90
2022-08-05T11:24:04.618Z,26.90
2022-08-05T11:26:29.287Z,27.10
2022-08-05T11:29:11.631Z,27.30
2022-08-05T11:31:57.972Z,27.30
2022-08-05T11:34:50.882Z,27.10
2022-08-05T11:38:36.715Z,26.90
2022-08-05T11:41:36.820Z,26.70
2022-08-05T11:44:10.781Z,24.60
2022-08-05T11:47:09.841Z,26.90
2022-08-05T11:52:11.431Z,27.20
2022-08-05T11:54:41.385Z,27.40
2022-08-05T11:57:25.275Z,27.60
2022-08-05T11:59:55.725Z,27.80
2022-08-05T12:02:30.601Z,27.80
2022-08-05T12:05:01.246Z,27.90
2022-08-05T12:08:10.499Z,28.00
2022-08-05T12:10:42.969Z,28.00
2022-08-05T12:13:16.352Z,27.80
2022-08-05T12:15:49.496Z,27.80
2022-08-05T12:18:20.605Z,28.00
2022-08-05T12:23:21.774Z,28.20
2022-08-05T12:25:56.955Z,28.20
2022-08-05T12:28:36.744Z,28.30
2022-08-05T12:31:05.114Z,28.30
2022-08-05T12:33:36.251Z,28.30
2022-08-05T12:36:07.020Z,28.40
2022-08-05T12:38:39.475Z,28.60
2022-08-05T12:41:13.430Z,28.50
2022-08-05T12:43:52.754Z,28.60
2022-08-05T12:46:29.767Z,28.60
2022-08-05T12:49:01.367Z,28.60
2022-08-05T12:52:10.156Z,28.50
2022-08-05T12:57:09.599Z,28.30
2022-08-05T13:01:58.670Z,28.30
2022-08-05T13:02:37.347Z,28.20
2022-08-05T13:05:11.252Z,28.30
2022-08-05T13:08:00.278Z,28.50
2022-08-05T13:10:33.211Z,28.60
2022-08-05T13:13:01.041Z,28.70
2022-08-05T13:15:41.076Z,28.60
2022-08-05T13:18:10.550Z,28.60
2022-08-05T13:20:40.328Z,28.60
2022-08-05T13:23:08.613Z,28.60
2022-08-05T13:25:58.734Z,28.50
2022-08-05T13:28:25.957Z,28.30
2022-08-05T13:30:53.987Z,28.20
2022-08-05T13:34:24.169Z,28.10
2022-08-05T13:36:09.817Z,28.10
2022-08-05T13:38:41.916Z,28.10
2022-08-05T13:41:11.976Z,28.00
2022-08-05T13:43:45.235Z,27.90
2022-08-05T13:47:01.665Z,27.90
2022-08-05T13:49:11.727Z,27.80
2022-08-05T13:51:46.614Z,27.60
2022-08-05T13:54:16.122Z,27.50
2022-08-05T13:56:51.038Z,27.30
2022-08-05T13:59:23.773Z,27.30
2022-08-05T14:01:58.524Z,27.20
2022-08-05T14:04:49.500Z,27.10
2022-08-05T14:07:25.850Z,27.00
2022-08-05T14:10:08.630Z,26.90
2022-08-05T14:12:37.927Z,26.90
2022-08-05T14:16:06.193Z,26.90
2022-08-05T14:17:59.487Z,26.90
2022-08-05T14:20:28.363Z,27.00
2022-08-05T14:22:56.366Z,27.10
2022-08-05T14:27:58.589Z,27.20
2022-08-05T14:30:27.834Z,27.30
2022-08-05T14:32:56.697Z,27.30
2022-08-05T14:35:37.483Z,27.30
2022-08-05T14:38:31.905Z,27.40
2022-08-05T14:41:01.696Z,27.40
2022-08-05T14:44:00.259Z,27.40
2022-08-05T14:46:28.812Z,27.50
2022-08-05T14:48:58.869Z,27.50
2022-08-05T14:51:30.757Z,27.50
2022-08-05T14:54:26.062Z,27.30
2022-08-05T14:56:47.254Z,27.30
2022-08-05T14:59:16.790Z,27.10
2022-08-05T15:01:47.878Z,26.90
2022-08-05T15:04:17.407Z,26.90
2022-08-05T15:06:49.039Z,26.70
2022-08-05T15:09:50.454Z,26.80
2022-08-05T15:12:06.812Z,26.70
2022-08-05T15:14:48.079Z,26.60
2022-08-05T15:17:46.022Z,26.50
2022-08-05T15:20:15.623Z,26.30
2022-08-05T15:22:46.382Z,26.10
2022-08-05T15:25:23.555Z,26.10
2022-08-05T15:28:14.422Z,25.80
2022-08-05T15:30:46.265Z,25.80
2022-08-05T15:34:04.031Z,25.80
2022-08-05T15:36:03.695Z,25.80
2022-08-05T15:38:35.706Z,25.70
2022-08-05T15:41:22.398Z,25.70
2022-08-05T15:46:25.186Z,25.40
2022-08-05T15:48:58.750Z,25.30
2022-08-05T15:52:03.964Z,25.10
2022-08-05T15:54:34.743Z,25.10
2022-08-05T15:57:03.496Z,25.00
2022-08-05T15:59:35.529Z,24.90
2022-08-05T16:02:09.639Z,24.80
2022-08-05T16:04:43.048Z,24.70
2022-08-05T16:07:12.135Z,24.70
2022-08-05T16:09:42.087Z,24.60
2022-08-05T16:12:11.690Z,24.60
2022-08-05T16:17:10.139Z,24.50
2022-08-05T16:20:04.617Z,24.50
2022-08-05T16:22:27.612Z,24.50
2022-08-05T16:25:07.956Z,24.50
2022-08-05T16:27:59.705Z,24.50
2022-08-05T16:30:29.026Z,24.50
2022-08-05T16:32:59.303Z,24.50
2022-08-05T16:35:32.069Z,24.40
2022-08-05T16:38:15.095Z,24.40
2022-08-05T16:40:52.068Z,24.40
2022-08-05T16:43:30.370Z,24.40
2022-08-05T16:46:04.678Z,24.30
2022-08-05T16:48:41.902Z,24.30
2022-08-05T16:54:24.046Z,24.30
2022-08-05T16:56:55.600Z,24.30
2022-08-05T16:59:23.949Z,24.40
2022-08-05T17:01:54.997Z,24.40
2022-08-05T17:04:27.473Z,24.30
2022-08-05T17:06:58.215Z,24.30
2022-08-05T17:09:29.548Z,24.30
2022-08-05T17:11:59.663Z,24.30
2022-08-05T17:14:37.442Z,24.30
2022-08-05T17:17:14.600Z,24.30
2022-08-05T17:19:46.379Z,24.40
2022-08-05T17:22:24.631Z,24.30
2022-08-05T17:24:57.866Z,24.30
2022-08-05T17:27:33.739Z,24.30
2022-08-05T17:30:03.229Z,24.30
2022-08-05T17:35:03.181Z,24.10
2022-08-05T17:37:41.386Z,24.20
2022-08-05T17:40:15.380Z,24.30
2022-08-05T17:42:50.931Z,24.50
2022-08-05T17:45:21.851Z,22.40
2022-08-05T17:47:55.415Z,24.80
2022-08-05T17:50:30.926Z,24.80
2022-08-05T17:53:04.841Z,24.70
2022-08-05T17:55:39.746Z,24.70
2022-08-05T17:58:13.421Z,24.30
2022-08-05T18:00:45.338Z,24.30
2022-08-05T18:03:39.385Z,24.10
2022-08-05T18:06:11.217Z,24.20
2022-08-05T18:08:45.003Z,24.20
2022-08-05T18:11:23.771Z,24.70
2022-08-05T18:13:55.400Z,24.60
2022-08-05T18:16:23.350Z,24.60
2022-08-05T18:18:51.985Z,25.10
2022-08-05T18:21:26.055Z,25.10
2022-08-05T18:23:54.496Z,25.60
2022-08-05T18:26:29.584Z,26.50
2022-08-05T18:29:00.284Z,26.50
2022-08-05T18:31:35.288Z,27.20
2022-08-05T18:34:03.883Z,27.70
2022-08-05T18:36:36.312Z,28.00
2022-08-05T18:39:04.643Z,28.10
2022-08-05T18:41:56.683Z,27.60
2022-08-05T18:44:35.181Z,27.00
2022-08-05T18:47:15.333Z,26.30
2022-08-05T18:50:00.929Z,25.70
2022-08-05T18:55:10.589Z,24.80
2022-08-05T18:57:50.202Z,24.40
2022-08-05T19:00:27.042Z,24.40
2022-08-05T19:02:56.852Z,24.00
2022-08-05T19:06:11.105Z,23.80
2022-08-05T19:08:15.758Z,23.60
2022-08-05T19:10:47.238Z,23.50
2022-08-05T19:13:15.954Z,24.40
2022-08-05T19:15:59.958Z,23.30
2022-08-05T19:21:02.615Z,23.00
2022-08-05T19:24:08.185Z,22.90
2022-08-05T19:26:23.946Z,22.80
2022-08-05T19:28:53.080Z,22.80
2022-08-05T19:31:21.536Z,22.80
2022-08-05T19:33:56.533Z,22.70
2022-08-05T19:36:25.328Z,22.70
2022-08-05T19:39:01.187Z,22.70
2022-08-05T19:42:05.852Z,22.60
2022-08-05T19:44:18.508Z,22.50
2022-08-05T19:46:46.802Z,22.60
2022-08-05T19:49:16.877Z,22.60
2022-08-05T19:52:04.663Z,22.50
2022-08-05T19:54:36.865Z,22.50
2022-08-05T19:57:09.508Z,22.50
2022-08-05T19:59:55.411Z,22.40
2022-08-05T20:02:30.247Z,22.50
2022-08-05T20:04:59.986Z,22.50
2022-08-05T20:07:46.397Z,22.50
2022-08-05T20:10:19.376Z,22.50
2022-08-05T20:12:50.305Z,22.50
2022-08-05T20:15:23.002Z,22.40
2022-08-05T20:18:10.075Z,22.40
2022-08-05T20:20:48.180Z,22.40
2022-08-05T20:23:16.516Z,22.40
2022-08-05T20:25:46.063Z,22.40
2022-08-05T20:28:17.013Z,22.40
2022-08-05T20:30:44.835Z,22.40
2022-08-05T20:33:21.431Z,22.30
2022-08-05T20:35:49.438Z,22.30
2022-08-05T20:38:26.954Z,22.30
2022-08-05T20:40:59.966Z,22.20
2022-08-05T20:43:57.507Z,22.10
2022-08-05T20:46:25.605Z,22.10
2022-08-05T20:48:53.752Z,22.00
2022-08-05T20:51:25.269Z,22.00
2022-08-05T20:53:56.991Z,22.00
2022-08-05T20:56:29.018Z,22.00
2022-08-05T20:59:04.035Z,22.00
2022-08-05T21:01:42.330Z,21.90
2022-08-05T21:04:10.931Z,21.90
2022-08-05T21:06:45.758Z,21.90
2022-08-05T21:09:14.331Z,21.80
2022-08-05T21:12:06.821Z,21.70
2022-08-05T21:14:35.320Z,21.70
2022-08-05T21:17:05.093Z,21.70
2022-08-05T21:19:46.864Z,21.70
2022-08-05T21:22:23.571Z,21.70
2022-08-05T21:24:52.655Z,21.70
2022-08-05T21:27:24.612Z,21.70
2022-08-05T21:29:55.517Z,21.60
2022-08-05T21:35:16.723Z,21.60
2022-08-05T21:37:53.254Z,21.60
2022-08-05T21:40:21.977Z,21.50
2022-08-05T21:42:53.918Z,21.50
2022-08-05T21:48:16.354Z,21.50
2022-08-05T21:50:54.340Z,21.50
2022-08-05T21:53:27.040Z,21.50
2022-08-05T21:56:09.928Z,21.50
2022-08-05T21:58:57.239Z,21.50
2022-08-05T22:04:14.335Z,21.50
2022-08-05T22:06:51.367Z,21.40
2022-08-05T22:09:22.404Z,21.40
2022-08-05T22:11:56.101Z,21.40
2022-08-05T22:14:37.958Z,21.40
2022-08-05T22:17:07.416Z,21.50
2022-08-05T22:20:00.724Z,21.50
2022-08-05T22:22:27.708Z,21.50
2022-08-05T22:25:31.206Z,21.50
2022-08-05T22:28:17.081Z,21.50
2022-08-05T22:33:55.491Z,21.50
2022-08-05T22:36:19.458Z,21.50
2022-08-05T22:38:57.058Z,21.40
2022-08-05T22:42:10.827Z,21.30
2022-08-05T22:47:08.758Z,21.20
2022-08-05T22:50:20.400Z,21.20
2022-08-05T22:52:36.815Z,21.20
2022-08-05T22:57:49.132Z,21.20
2022-08-05T23:00:22.027Z,21.20
2022-08-05T23:07:51.622Z,21.10
2022-08-05T23:10:20.868Z,21.10
2022-08-05T23:12:55.128Z,21.10
2022-08-05T23:15:26.895Z,21.00
2022-08-05T23:18:01.914Z,21.00
2022-08-05T23:20:31.691Z,20.90
2022-08-05T23:23:00.608Z,20.80
2022-08-05T23:25:51.215Z,20.80
2022-08-05T23:28:19.618Z,20.70
2022-08-05T23:30:52.824Z,20.60
2022-08-05T23:33:39.269Z,20.60
2022-08-05T23:36:13.722Z,20.50
2022-08-05T23:38:42.612Z,20.50
2022-08-05T23:41:11.066Z,20.50
2022-08-05T23:44:05.581Z,20.40
2022-08-05T23:46:27.219Z,20.40
2022-08-05T23:49:00.817Z,20.40
2022-08-05T23:51:53.543Z,20.40
2022-08-05T23:54:25.287Z,20.40
2022-08-05T23:56:55.326Z,20.40
2022-08-05T23:59:27.783Z,20.30
